« 津軽海峡ツアーその7 | トップページ | 青森から帰宅・・・でもJA2429はまだ・・ »

2007年8月17日 (金)

津軽海峡ツアーその8

8月17日(金)
RJSA 170000Z 35004KT 5000 VCFG BR FEW001 SCT002 BKN007 20/19 Q1010
RJAA 170500Z 10011KT 9999 FEW035 SCT180 BKN/// 32/23 Q1006 NOSIG
 
ツアーはまだ続きますが、私は0940発東京行きのJAL1202便で帰ります~♪

|

« 津軽海峡ツアーその7 | トップページ | 青森から帰宅・・・でもJA2429はまだ・・ »

空技(ひこうき、モーターグライダー)」カテゴリの記事

コメント

コメントを書く



(ウェブ上には掲載しません)


コメントは記事投稿者が公開するまで表示されません。



« 津軽海峡ツアーその7 | トップページ | 青森から帰宅・・・でもJA2429はまだ・・ »